Tiempo atmosférico en la estación meteorológica de La Vall de Bianya, Girona (440 m.)



Fecha
DESCASC
Temp. máxima en grados centígrados (hora)
DESCASC
Temp. mínima en grados centígrados (hora)
DESCASC
Temp. media en grados centígrados
DESCASC
Racha de viento máxima en m/sg (hora)
DESCASC
Velocidad máxima media en intervalos de 10 minutos(hora)
DESCASC
Precipitaciones diarias en mm
DESCASC
Precipitaciones de 00:00 a 06:00 en mm
DESCASC
Precipitaciones de 06:00 a 12:00 en mm
DESCASC
Precipitaciones de 12:00 a 18:00 en mm
DESCASC
Precipitaciones de 18:00 a 24:00 en mm
DESCASC
21-03-2019 17.7 (14:30) -2.7 (07:00) 7.5 8.89 (15:10) 4.17 (15:10) 0 0 0 0 0
20-03-2019 16.7 (14:10) -2.9 (07:00) 6.9 6.39 (15:30) 3.61 (14:50) 0 0 0 0 0
19-03-2019 15.5 (15:00) 0.9 (23:59) 8.2 11.67 (13:30) 4.72 (17:00) 0 0 0 0 0
18-03-2019 17.2 (12:50) 4.6 (07:20) 10.9 8.61 (14:00) 4.17 (14:10) 0 0 0 0 0
17-03-2019 19.5 (14:30) 2.8 (00:00) 11.1 8.33 (18:10) 4.72 (12:00) 0 0 0 0 0
16-03-2019 22.9 (14:40) 1 (00:00) 11.9 6.11 (15:20) 3.89 (14:50) 0 0 0 0 0
15-03-2019 20.8 (14:30) 2.1 (00:00) 11.4 6.94 (15:40) 4.44 (17:40) 0 0 0 0 0
14-03-2019 16.2 (14:10) 1.6 (00:00) 8.9 5.83 (12:30) 3.61 (15:10) 0 0 0 0 0
13-03-2019 15 (12:50) 5 (00:00) 10 9.17 (14:20) 5.83 (14:40) 0 0 0 0 0
12-03-2019 19.9 (15:20) 5.9 (00:00) 12.9 6.11 (16:20) 3.33 (16:20) 0 0 0 0 0
11-03-2019 19.3 (15:20) 10 (00:00) 14.6 7.78 (17:20) 4.72 (17:20) 0.4 0.4 0 0 0
10-03-2019 21.2 (14:50) 2.1 (00:00) 11.7 6.94 (13:50) 3.89 (13:50) 0 0 0 0 0
09-03-2019 20.1 (14:30) 0.9 (00:00) 10.5 6.11 (17:40) 3.89 (17:40) 0 0 0 0 0
08-03-2019 17.7 (15:10) -1 (-00:0) 8.4 7.78 (17:10) 4.17 (17:10) 0 0 0 0 0
07-03-2019 15 (14:50) 1.9 (00:00) 8.4 10 (15:40) 5.28 (15:40) 0 0 0 0 0
06-03-2019 18 (13:20) 4.6 (00:00) 11.3 10.56 (14:40) 3.89 (21:50) 6.2 0 0 0 6.2
05-03-2019 18.5 (14:50) 6.8 (00:00) 12.7 8.61 (16:40) 4.44 (18:40) 0 0 0 0 0
04-03-2019 17.5 (13:20) 5.1 (00:00) 11.3 9.17 (14:10) 5.56 (12:10) 0 0 0 0 0
03-03-2019 22.4 (16:30) 0.4 (00:00) 11.4 4.72 (15:40) 2.78 (14:00) 0 0 0 0 0
02-03-2019 18.6 (13:00) 3.5 (00:00) 11.1 9.17 (14:50) 4.72 (15:00) 0 0 0 0 0
01-03-2019 19.2 (14:50) -0.5 (-00:0) 9.4 7.22 (17:00) 4.72 (17:00) 0 0 0 0 0
28-02-2019 21.5 (14:30) -0.1 (00:00) 10.7 6.67 (11:10) 3.89 (12:00) 0 0 0 0 0
27-02-2019 24.3 (15:10) -1.4 (-00:0) 11.4 7.5 (16:20) 3.89 (16:20) 0 0 0 0 0
26-02-2019 21.3 (15:20) -1.2 (-00:0) 10 5.28 (16:10) 2.78 (14:40) 0 0 0 0 0
25-02-2019 18.1 (12:00) -1.1 (-00:0) 8.5 8.06 (15:20) 5 (15:20) 0 0 0 0 0
24-02-2019 17.7 (15:10) -0.4 (00:00) 8.7 8.06 (17:10) 5.28 (17:10) 0 0 0 0 0
23-02-2019 20.7 (14:50) -0.9 (-00:0) 9.9 7.78 (15:10) 5 (15:10) 0 0 0 0 0
22-02-2019 25.4 (15:20) -1.8 (-00:0) 11.8 4.72 (17:10) 2.22 (17:20) 0 0 0 0 0
21-02-2019 18 (14:50) -1.9 (-00:0) 8.1 6.39 (15:40) 4.17 (15:40) 0 0 0 0 0
20-02-2019 16 (15:10) 1.4 (00:00) 8.7 5.28 (16:50) 3.33 (16:50) 0 0 0 0 0

Gráficas

Temp. máximas Temp. mínimas Temp. medias Precipitaciones Rachas de viento máximas Velocidades máximas media en intervalos de 10 minutos

Datos horarios

Fecha y hora oficial Temperatura (ºC) Velocidad del viento (km/h) Dirección del viento Racha (km/h) Dirección de racha Precipitación (mm) Presión (hPa) Tendencia (hPa) Humedad (%)
2019-03-21 23:00:00 3 0 Calma 4 Norte 0 -- -- 80
2019-03-21 22:00:00 4.3 0 Calma 3 Este 0 -- -- 74
2019-03-21 21:00:00 6.3 0 Calma 5 Oeste 0 -- -- 67
2019-03-21 20:00:00 8.4 0 Calma 5 Sudeste 0 -- -- 59
2019-03-21 19:00:00 11.4 4 Sudeste 12 Este 0 -- -- 49
2019-03-21 18:00:00 15.5 5 Este 19 Nordeste 0 -- -- 36
2019-03-21 17:00:00 16 12 Este 26 Este 0 -- -- 34
2019-03-21 16:00:00 16.5 14 Este 32 Nordeste 0 -- -- 33
2019-03-21 15:00:00 17.2 14 Nordeste 24 Nordeste 0 -- -- 32
2019-03-21 14:00:00 17.4 12 Este 22 Nordeste 0 -- -- 26
2019-03-21 13:00:00 17.4 5 Este 22 Sudeste 0 -- -- 24
2019-03-21 12:00:00 16.2 8 Este 18 Sudeste 0 -- -- 27
2019-03-21 11:00:00 15.4 5 Este 13 Este 0 -- -- 31
2019-03-21 10:00:00 10.2 0 Calma 7 Oeste 0 -- -- 45
2019-03-21 09:00:00 3.5 4 Oeste 6 Oeste 0 -- -- 69
2019-03-21 08:00:00 -1.4 4 Oeste 6 Oeste 0 -- -- 89
2019-03-21 07:00:00 -2.7 0 Calma 8 Oeste 0 -- -- 88
2019-03-21 06:00:00 -2.4 3 Sudoeste 6 Sudoeste 0 -- -- 87
2019-03-21 05:00:00 -1.8 0 Calma 5 Sur 0 -- -- 86
2019-03-21 04:00:00 -1.4 0 Calma 6 Noroeste 0 -- -- 85
2019-03-21 03:00:00 -0.8 2 Norte 8 Norte 0 -- -- 84
2019-03-21 02:00:00 -0.1 4 Sudoeste 10 Norte 0 -- -- 82
2019-03-21 01:00:00 0.4 3 Sudoeste 8 Oeste 0 -- -- 81
2019-03-21 00:00:00 1.4 3 Norte 7 Nordeste 0 -- -- 77
2019-03-20 23:00:00 2.6 3 Noroeste 8 Sur 0 -- -- 72
2019-03-20 22:00:00 4.1 0 Calma 8 Sur 0 -- -- 67
2019-03-20 21:00:00 6 3 Noroeste 5 Noroeste 0 -- -- 60
2019-03-20 20:00:00 8.5 0 Calma 10 Sudoeste 0 -- -- 52
2019-03-20 19:00:00 10.8 6 Sur 15 Sudeste 0 -- -- 41
2019-03-20 18:00:00 14.1 9 Este 18 Este 0 -- -- 33
2019-03-20 17:00:00 15.5 10 Este 23 Este 0 -- -- 31
2019-03-20 16:00:00 16 8 Este 23 Este 0 -- -- 32
2019-03-20 15:00:00 16 8 Este 22 Nordeste 0 -- -- 31
2019-03-20 14:00:00 15.9 9 Oeste 21 Sudeste 0 -- -- 30
2019-03-20 13:00:00 15.2 10 Nordeste 18 Este 0 -- -- 30
2019-03-20 12:00:00 14.4 5 Oeste 17 Este 0 -- -- 32
2019-03-20 11:00:00 13.1 3 Noroeste 8 Sudeste 0 -- -- 37
2019-03-20 10:00:00 8.7 3 Oeste 6 Sudoeste 0 -- -- 58
2019-03-20 09:00:00 2.9 0 Calma 4 Noroeste 0 -- -- 79
2019-03-20 08:00:00 -1.6 0 Calma 5 Sur 0 -- -- 91
2019-03-20 07:00:00 -2.9 3 Sudoeste 6 Sudoeste 0 -- -- 90
2019-03-20 06:00:00 -2.8 0 Calma 7 Sudoeste 0 -- -- 90
2019-03-20 05:00:00 -2.3 0 Calma 4 Sur 0 -- -- 88
2019-03-20 04:00:00 -1.8 0 Calma 8 Norte 0 -- -- 87
2019-03-20 03:00:00 -1.4 3 Oeste 8 Sur 0 -- -- 87
2019-03-20 02:00:00 -1 0 Calma 5 Noroeste 0 -- -- 85
2019-03-20 01:00:00 0 3 Norte 9 Sur 0 -- -- 82
2019-03-20 00:00:00 0.9 0 Calma 9 Sudeste 0 -- -- 78
2019-03-19 23:00:00 2.1 4 Sudoeste 6 Noroeste 0 -- -- 74
2019-03-19 22:00:00 3.3 0 Calma 6 Norte 0 -- -- 69
2019-03-19 21:00:00 4.8 2 Sudeste 9 Este 0 -- -- 64
2019-03-19 20:00:00 6.8 2 Sur 14 Nordeste 0 -- -- 56
2019-03-19 19:00:00 10.1 7 Este 18 Nordeste 0 -- -- 42
2019-03-19 18:00:00 11.8 10 Este 26 Nordeste 0 -- -- 40
2019-03-19 17:00:00 12.7 17 Este 27 Nordeste 0 -- -- 41
2019-03-19 16:00:00 14.9 6 Norte 37 Norte 0 -- -- 32
2019-03-19 15:00:00 15.5 10 Norte 27 Nordeste 0 -- -- 29
2019-03-19 14:00:00 13.2 13 Nordeste 42 Nordeste 0 -- -- 31
2019-03-19 13:00:00 13.7 12 Norte 36 Este 0 -- -- 31
2019-03-19 12:00:00 14.6 8 Norte 19 Este 0 -- -- 32
2019-03-19 11:00:00 13 7 Este 17 Nordeste 0 -- -- 41
2019-03-19 10:00:00 12.3 5 Este 18 Este 0 -- -- 47
2019-03-19 09:00:00 9.1 3 Sudeste 8 Sudoeste 0 -- -- 68
2019-03-19 08:00:00 5.1 0 Calma 6 Este 0 -- -- 88
2019-03-19 07:00:00 4.7 4 Este 12 Oeste 0 -- -- 87
2019-03-19 06:00:00 5.2 3 Sudoeste 10 Noroeste 0 -- -- 86
2019-03-19 05:00:00 5.6 3 Sudoeste 6 Sur 0 -- -- 85
2019-03-19 04:00:00 5.6 2 Sudoeste 6 Norte 0 -- -- 85
2019-03-19 03:00:00 5.8 4 Noroeste 6 Noroeste 0 -- -- 84
2019-03-19 02:00:00 6.1 2 Sur 5 Oeste 0 -- -- 82
2019-03-19 01:00:00 6.2 3 Oeste 6 Sudoeste 0 -- -- 81
2019-03-19 00:00:00 6.3 0 Calma 6 Oeste 0 -- -- 80
2019-03-18 23:00:00 6.5 3 Norte 6 Sudeste 0 -- -- 78
2019-03-18 22:00:00 6.6 0 Calma 6 Noroeste 0 -- -- 76
2019-03-18 21:00:00 7.2 2 Oeste 6 Noroeste 0 -- -- 73
2019-03-18 20:00:00 8.5 3 Nordeste 6 Sur 0 -- -- 66
2019-03-18 19:00:00 10.8 3 Sur 10 Sur 0 -- -- 57
2019-03-18 18:00:00 12.2 10 Sur 19 Sur 0 -- -- 51
2019-03-18 17:00:00 14.2 6 Sudoeste 27 Sudoeste 0 -- -- 44
2019-03-18 16:00:00 15 9 Este 29 Este 0 -- -- 40
2019-03-18 15:00:00 17 14 Este 27 Nordeste 0 -- -- 32
2019-03-18 14:00:00 16.7 12 Este 31 Nordeste 0 -- -- 32
2019-03-18 13:00:00 17.1 10 Este 23 Este 0 -- -- 26
2019-03-18 12:00:00 15.9 8 Sudeste 15 Sudeste 0 -- -- 28
2019-03-18 11:00:00 14.7 7 Nordeste 16 Este 0 -- -- 41
2019-03-18 10:00:00 12.2 2 Oeste 5 Oeste 0 -- -- 58
2019-03-18 09:00:00 8.1 0 Calma 8 Este 0 -- -- 78
2019-03-18 08:00:00 5.2 3 Noroeste 6 Oeste 0 -- -- 88
2019-03-18 07:00:00 4.8 2 Norte 10 Norte 0 -- -- 87
2019-03-18 06:00:00 5.3 2 Sudoeste 7 Este 0 -- -- 85
2019-03-18 05:00:00 5.3 0 Calma 4 Sur 0 -- -- 85
2019-03-18 04:00:00 6.4 0 Calma 4 Norte 0 -- -- 79
2019-03-18 03:00:00 9.2 3 Oeste 12 Sur 0 -- -- 68
2019-03-18 02:00:00 10.3 6 Sur 10 Sur 0 -- -- 64
2019-03-18 01:00:00 10.9 2 Sudeste 16 Este 0 -- -- 55
2019-03-18 00:00:00 11.3 4 Este 20 Este 0 -- -- 60
2019-03-17 23:00:00 11.6 7 Este 17 Este 0 -- -- 64
2019-03-17 22:00:00 12.1 8 Este 18 Este 0 -- -- 64
2019-03-17 21:00:00 13.6 6 Este 23 Sudeste 0 -- -- 62
2019-03-17 20:00:00 14.6 8 Este 18 Este 0 -- -- 60
2019-03-17 19:00:00 15.8 8 Este 30 Nordeste 0 -- -- 55
2019-03-17 18:00:00 16.8 9 Este 20 Nordeste 0 -- -- 47
2019-03-17 17:00:00 18.4 8 Este 22 Este 0 -- -- 44
2019-03-17 16:00:00 18.8 10 Este 24 Este 0 -- -- 45
2019-03-17 15:00:00 19.3 10 Este 23 Este 0 -- -- 44
2019-03-17 14:00:00 18.8 15 Este 27 Nordeste 0 -- -- 47
2019-03-17 13:00:00 18.8 13 Este 26 Este 0 -- -- 47
2019-03-17 12:00:00 18 17 Nordeste 26 Este 0 -- -- 48
2019-03-17 11:00:00 17.5 12 Este 24 Este 0 -- -- 53
2019-03-17 10:00:00 15.2 13 Este 25 Este 0 -- -- 54
2019-03-17 09:00:00 9 3 Oeste 6 Sudoeste 0 -- -- 73
2019-03-17 08:00:00 3.8 3 Oeste 5 Sudoeste 0 -- -- 91
2019-03-17 07:00:00 2.9 0 Calma 4 Oeste 0 -- -- 90
2019-03-17 06:00:00 3.3 0 Calma 5 Oeste 0 -- -- 89
2019-03-17 05:00:00 4.2 5 Oeste 8 Oeste 0 -- -- 89
2019-03-17 04:00:00 4.5 3 Oeste 6 Oeste 0 -- -- 89
2019-03-17 03:00:00 4.8 2 Oeste 10 Oeste 0 -- -- 90
2019-03-17 02:00:00 5.7 3 Norte 13 Oeste 0 -- -- 89
2019-03-17 01:00:00 6.3 7 Oeste 10 Oeste 0 -- -- 92
2019-03-17 00:00:00 6.7 2 Sudoeste 5 Oeste 0 -- -- 90
2019-03-16 23:00:00 8 2 Oeste 8 Oeste 0 -- -- 86
2019-03-16 22:00:00 9.6 2 Oeste 5 Oeste 0 -- -- 84
2019-03-16 21:00:00 11.4 0 Calma 5 Sudoeste 0 -- -- 78
2019-03-16 20:00:00 14 0 Calma 8 Sudeste 0 -- -- 69
2019-03-16 19:00:00 17.9 5 Sudeste 10 Este 0 -- -- 56
2019-03-16 18:00:00 21 7 Este 17 Sudeste 0 -- -- 46
2019-03-16 17:00:00 22.6 10 Este 19 Este 0 -- -- 43
2019-03-16 16:00:00 22.7 10 Este 22 Nordeste 0 -- -- 45
2019-03-16 15:00:00 22.7 13 Este 22 Este 0 -- -- 44
2019-03-16 14:00:00 22.5 12 Este 18 Nordeste 0 -- -- 38
2019-03-16 13:00:00 21.7 7 Este 14 Este 0 -- -- 39
2019-03-16 12:00:00 19.7 8 Nordeste 16 Este 0 -- -- 46
2019-03-16 11:00:00 15.6 3 Sudoeste 9 Sudoeste 0 -- -- 61
2019-03-16 10:00:00 10.8 4 Sudoeste 8 Sudoeste 0 -- -- 79
2019-03-16 09:00:00 5.4 2 Sudoeste 4 Oeste 0 -- -- 100
2019-03-16 08:00:00 1.5 0 Calma 4 Noroeste 0 -- -- 98
2019-03-16 07:00:00 1.3 3 Oeste 5 Oeste 0 -- -- 97
2019-03-16 06:00:00 1.3 2 Oeste 5 Noroeste 0 -- -- 96
2019-03-16 05:00:00 1.7 0 Calma 5 Sudoeste 0 -- -- 96
2019-03-16 04:00:00 2.3 0 Calma 4 Sur 0 -- -- 95
2019-03-16 03:00:00 2.7 0 Calma 6 Oeste 0 -- -- 95
2019-03-16 02:00:00 3.5 0 Calma 4 Sudeste 0 -- -- 94
2019-03-16 01:00:00 4.4 0 Calma 4 Noroeste 0 -- -- 93
2019-03-16 00:00:00 5.3 3 Oeste 4 Oeste 0 -- -- 91
2019-03-15 23:00:00 6.6 0 Calma 2 Sudoeste 0 -- -- 89
2019-03-15 22:00:00 8.4 0 Calma 4 Nordeste 0 -- -- 83
2019-03-15 21:00:00 11.4 4 Este 16 Sudeste 0 -- -- 73
2019-03-15 20:00:00 13 8 Este 17 Sudeste 0 -- -- 69
2019-03-15 19:00:00 15 8 Este 23 Nordeste 0 -- -- 62
2019-03-15 18:00:00 18 15 Este 24 Este 0 -- -- 50
2019-03-15 17:00:00 20 14 Este 25 Este 0 -- -- 43
2019-03-15 16:00:00 20.4 12 Este 25 Nordeste 0 -- -- 42
2019-03-15 15:00:00 20.6 11 Este 23 Nordeste 0 -- -- 41
2019-03-15 14:00:00 20.3 10 Este 18 Este 0 -- -- 40
2019-03-15 13:00:00 19 10 Nordeste 21 Nordeste 0 -- -- 42
2019-03-15 12:00:00 18.6 7 Este 15 Norte 0 -- -- 43
2019-03-15 11:00:00 17.4 3 Este 8 Este 0 -- -- 46
2019-03-15 10:00:00 12.5 2 Sudeste 8 Oeste 0 -- -- 65
2019-03-15 09:00:00 6.6 3 Oeste 6 Oeste 0 -- -- 91
2019-03-15 08:00:00 2.7 2 Sudoeste 7 Oeste 0 -- -- 97
2019-03-15 07:00:00 2.4 3 Oeste 8 Noroeste 0 -- -- 96
2019-03-15 06:00:00 3.3 0 Calma 9 Oeste 0 -- -- 94
2019-03-15 05:00:00 4.2 0 Calma 11 Noroeste 0 -- -- 93
2019-03-15 04:00:00 5.2 0 Calma 8 Noroeste 0 -- -- 92
2019-03-15 03:00:00 5.4 4 Oeste 11 Oeste 0 -- -- 92
2019-03-15 02:00:00 5.6 4 Oeste 9 Sudoeste 0 -- -- 90
2019-03-15 01:00:00 5.9 2 Sudoeste 9 Nordeste 0 -- -- 90
2019-03-15 00:00:00 6.2 0 Calma 6 Sudoeste 0 -- -- 88
2019-03-14 23:00:00 6.3 2 Oeste 8 Oeste 0 -- -- 87
2019-03-14 22:00:00 6.9 0 Calma 10 Oeste 0 -- -- 85
2019-03-14 21:00:00 7.6 3 Oeste 10 Este 0 -- -- 81
2019-03-14 20:00:00 8.4 5 Oeste 12 Sudeste 0 -- -- 76
2019-03-14 19:00:00 10.8 5 Sudeste 13 Este 0 -- -- 69
2019-03-14 18:00:00 12.5 6 Este 11 Este 0 -- -- 60
2019-03-14 17:00:00 13.5 4 Este 12 Nordeste 0 -- -- 55
2019-03-14 16:00:00 13.8 7 Este 18 Este 0 -- -- 53
2019-03-14 15:00:00 14 12 Este 21 Nordeste 0 -- -- 49
2019-03-14 14:00:00 16.1 8 Este 21 Nordeste 0 -- -- 45
2019-03-14 13:00:00 14.8 11 Este 21 Este 0 -- -- 47
2019-03-14 12:00:00 14.6 6 Este 14 Este 0 -- -- 52
2019-03-14 11:00:00 13.5 2 Sudeste 8 Nordeste 0 -- -- 53
2019-03-14 10:00:00 9.6 3 Este 6 Este 0 -- -- 72
2019-03-14 09:00:00 4.6 0 Calma 7 Sudoeste 0 -- -- 100
2019-03-14 08:00:00 2.3 3 Sudoeste 7 Noroeste 0 -- -- 98
2019-03-14 07:00:00 1.8 2 Noroeste 6 Noroeste 0 -- -- 97
2019-03-14 06:00:00 2.7 3 Sudoeste 5 Oeste 0 -- -- 96
2019-03-14 05:00:00 3.7 2 Sur 4 Oeste 0 -- -- 95
2019-03-14 04:00:00 4.7 0 Calma 4 Este 0 -- -- 94
2019-03-14 03:00:00 5.5 0 Calma 6 Sudeste 0 -- -- 93
2019-03-14 02:00:00 6.1 3 Sudoeste 6 Sudoeste 0 -- -- 93
2019-03-14 01:00:00 6.1 3 Este 9 Oeste 0 -- -- 92
2019-03-14 00:00:00 6.5 3 Sudoeste 9 Norte 0 -- -- 91
2019-03-13 23:00:00 6 3 Norte 6 Sudeste 0 -- -- 93
2019-03-13 22:00:00 5.6 3 Este 10 Oeste 0 -- -- 90
2019-03-13 21:00:00 7.1 0 Calma 10 Sudeste 0 -- -- 86
2019-03-13 20:00:00 9.1 4 Sudeste 19 Nordeste 0 -- -- 81
2019-03-13 19:00:00 10.5 2 Este 19 Sur 0 -- -- 76
2019-03-13 18:00:00 11.6 10 Sur 20 Este 0 -- -- 72
2019-03-13 17:00:00 14.6 3 Este 21 Este 0 -- -- 59
2019-03-13 16:00:00 15 8 Este 29 Nordeste 0 -- -- 55
2019-03-13 15:00:00 14.1 16 Este 33 Este 0 -- -- 54
2019-03-13 14:00:00 13.9 15 Este 27 Este 0 -- -- 60
2019-03-13 13:00:00 14.4 11 Nordeste 23 Este 0 -- -- 58
2019-03-13 12:00:00 14.1 12 Este 21 Este 0 -- -- 55
2019-03-13 11:00:00 11.7 9 Este 15 Sudeste 0 -- -- 65
2019-03-13 10:00:00 8.7 3 Este 7 Este 0 -- -- 85
2019-03-13 09:00:00 6.6 3 Oeste 4 Noroeste 0 -- -- 93
2019-03-13 08:00:00 5.4 0 Calma 6 Oeste 0 -- -- 95
2019-03-13 07:00:00 5.4 3 Oeste 7 Sudoeste 0 -- -- 94
2019-03-13 06:00:00 5.9 6 Sudoeste 9 Sudoeste 0 -- -- 92
2019-03-13 05:00:00 5.5 2 Oeste 7 Este 0 -- -- 89
2019-03-13 04:00:00 5.4 0 Calma 6 Noroeste 0 -- -- 88
2019-03-13 03:00:00 5.3 4 Oeste 8 Oeste 0 -- -- 88
2019-03-13 02:00:00 5.3 0 Calma 4 Oeste 0 -- -- 86
2019-03-13 01:00:00 6.1 2 Noroeste 10 Oeste 0 -- -- 84
2019-03-13 00:00:00 6.5 0 Calma 6 Noroeste 0 -- -- 84
2019-03-12 23:00:00 7.9 0 Calma 8 Noroeste 0 -- -- 76
2019-03-12 22:00:00 8.7 4 Sur 12 Oeste 0 -- -- 75
2019-03-12 21:00:00 10.5 0 Calma 10 Este 0 -- -- 69
2019-03-12 20:00:00 12.5 3 Sur 10 Este 0 -- -- 61
2019-03-12 19:00:00 14.2 3 Este 5 Este 0 -- -- 52
2019-03-12 18:00:00 19.1 5 Oeste 13 Oeste 0 -- -- 37
2019-03-12 17:00:00 19.6 4 Este 22 Este 0 -- -- 38
2019-03-12 16:00:00 19.7 9 Este 18 Este 0 -- -- 39
2019-03-12 15:00:00 19.3 8 Este 15 Este 0 -- -- 40
2019-03-12 14:00:00 18.7 7 Nordeste 14 Nordeste 0 -- -- 40
2019-03-12 13:00:00 18.2 6 Este 14 Este 0 -- -- 37
2019-03-12 12:00:00 17.2 5 Este 15 Nordeste 0 -- -- 42
2019-03-12 11:00:00 15.4 5 Nordeste 11 Nordeste 0 -- -- 49
2019-03-12 10:00:00 12.7 3 Sudeste 6 Sudoeste 0 -- -- 61
2019-03-12 09:00:00 8.6 2 Sudoeste 6 Sudoeste 0 -- -- 78
2019-03-12 08:00:00 5.9 0 Calma 5 Noroeste 0 -- -- 87
2019-03-12 07:00:00 6.9 0 Calma 9 Nordeste 0 -- -- 81
2019-03-12 06:00:00 7.8 4 Este 7 Este 0 -- -- 77
2019-03-12 05:00:00 7.7 0 Calma 4 Noroeste 0 -- -- 80
2019-03-12 04:00:00 7.8 4 Oeste 10 Nordeste 0 -- -- 80
2019-03-12 03:00:00 7.5 3 Este 5 Este 0 -- -- 80
2019-03-12 02:00:00 8 3 Este 8 Este 0 -- -- 78
2019-03-12 01:00:00 9.2 2 Este 6 Sudoeste 0 -- -- 81
2019-03-12 00:00:00 10 0 Calma 13 Sur 0 -- -- 76
2019-03-11 23:00:00 11.3 4 Sudoeste 9 Sudoeste 0 -- -- 72
2019-03-11 22:00:00 12 5 Este 14 Sudeste 0 -- -- 59
2019-03-11 21:00:00 12.5 5 Sur 14 Este 0 -- -- 72
2019-03-11 20:00:00 13.6 4 Sur 16 Este 0 -- -- 68
2019-03-11 19:00:00 14.5 9 Este 19 Este 0 -- -- 60
2019-03-11 18:00:00 15.8 9 Este 28 Nordeste 0 -- -- 58
2019-03-11 17:00:00 17.7 8 Este 22 Este 0 -- -- 52
2019-03-11 16:00:00 18.8 4 Sudeste 17 Este 0 -- -- 50
2019-03-11 15:00:00 18.4 5 Sur 16 Nordeste 0 -- -- 55
2019-03-11 14:00:00 17.3 6 Sudeste 17 Sudeste 0 -- -- 57
2019-03-11 13:00:00 16.2 10 Nordeste 26 Este 0 -- -- 62
2019-03-11 12:00:00 16 8 Este 18 Nordeste 0 -- -- 62
2019-03-11 11:00:00 14.3 10 Este 26 Nordeste 0 -- -- 64
2019-03-11 10:00:00 13 13 Este 20 Este 0 -- -- 70
2019-03-11 09:00:00 11.7 2 Este 11 Nordeste 0 -- -- 80
2019-03-11 08:00:00 10.3 5 Nordeste 10 Nordeste 0 -- -- 93
2019-03-11 07:00:00 10.6 4 Nordeste 7 Nordeste 0 -- -- 96
2019-03-11 06:00:00 10.8 0 Calma 4 Sur 0 -- -- 97
2019-03-11 05:00:00 10.8 0 Calma 3 Sudoeste 0 -- -- 96
2019-03-11 04:00:00 11 0 Calma 4 Nordeste 0 -- -- 94
2019-03-11 03:00:00 11.2 2 Sudeste 8 Nordeste 0.4 -- -- 92
2019-03-11 02:00:00 12.3 4 Este 13 Nordeste 0 -- -- 83
2019-03-11 01:00:00 13 8 Este 14 Este 0 -- -- 78
2019-03-11 00:00:00 13.3 2 Sudeste 5 Nordeste 0 -- -- 77
2019-03-10 23:00:00 13.8 2 Este 13 Este 0 -- -- 74
2019-03-10 22:00:00 14.5 0 Calma 13 Sur 0 -- -- 71
2019-03-10 21:00:00 14.8 8 Sur 23 Sudoeste 0 -- -- 68
2019-03-10 20:00:00 15.5 8 Sudoeste 16 Sur 0 -- -- 66
2019-03-10 19:00:00 16.6 9 Sur 18 Sur 0 -- -- 63
2019-03-10 18:00:00 18.2 8 Sur 20 Este 0 -- -- 58
2019-03-10 17:00:00 20.3 10 Este 22 Nordeste 0 -- -- 50
2019-03-10 16:00:00 21.2 9 Nordeste 24 Nordeste 0 -- -- 48
2019-03-10 15:00:00 21.2 13 Este 23 Este 0 -- -- 47
2019-03-10 14:00:00 20.9 12 Este 25 Este 0 -- -- 48
2019-03-10 13:00:00 20.1 11 Este 20 Este 0 -- -- 47
2019-03-10 12:00:00 19.6 12 Este 19 Nordeste 0 -- -- 47
2019-03-10 11:00:00 18.6 6 Este 11 Sudeste 0 -- -- 52
2019-03-10 10:00:00 13.6 0 Calma 5 Oeste 0 -- -- 68
2019-03-10 09:00:00 6.9 3 Noroeste 5 Oeste 0 -- -- 98
2019-03-10 08:00:00 3 3 Sudoeste 6 Oeste 0 -- -- 99
2019-03-10 07:00:00 2.4 0 Calma 6 Noroeste 0 -- -- 97
2019-03-10 06:00:00 2.6 0 Calma 6 Oeste 0 -- -- 97
2019-03-10 05:00:00 3.2 0 Calma 4 Oeste 0 -- -- 96
2019-03-10 04:00:00 3.9 0 Calma 6 Oeste 0 -- -- 95
2019-03-10 03:00:00 4.5 0 Calma 4 Oeste 0 -- -- 95
2019-03-10 02:00:00 5.1 3 Sudoeste 4 Sudoeste 0 -- -- 94
2019-03-10 01:00:00 6.1 2 Oeste 4 Oeste 0 -- -- 92
2019-03-10 00:00:00 7.1 2 Sudeste 6 Sudoeste 0 -- -- 89
2019-03-09 23:00:00 7.7 0 Calma 4 Noroeste 0 -- -- 87
2019-03-09 22:00:00 8.7 2 Noroeste 5 Oeste 0 -- -- 84
2019-03-09 21:00:00 10.2 2 Oeste 5 Oeste 0 -- -- 78
2019-03-09 20:00:00 12 0 Calma 4 Noroeste 0 -- -- 72
2019-03-09 19:00:00 14.7 0 Calma 11 Este 0 -- -- 62
2019-03-09 18:00:00 17.6 9 Este 22 Este 0 -- -- 51
2019-03-09 17:00:00 19.1 10 Este 22 Nordeste 0 -- -- 47
2019-03-09 16:00:00 19.7 10 Nordeste 21 Nordeste 0 -- -- 44
2019-03-09 15:00:00 19.9 10 Este 19 Nordeste 0 -- -- 42
2019-03-09 14:00:00 19.6 9 Este 15 Este 0 -- -- 38
2019-03-09 13:00:00 18.6 7 Nordeste 15 Este 0 -- -- 41
2019-03-09 12:00:00 18.4 4 Este 7 Este 0 -- -- 41
2019-03-09 11:00:00 15.1 2 Sur 4 Sudeste 0 -- -- 54
2019-03-09 10:00:00 10.3 2 Sudeste 9 Sudoeste 0 -- -- 73
2019-03-09 09:00:00 4.9 0 Calma 6 Noroeste 0 -- -- 98
2019-03-09 08:00:00 1.2 3 Sudoeste 5 Norte 0 -- -- 98
2019-03-09 07:00:00 1.2 2 Oeste 7 Noroeste 0 -- -- 97
2019-03-09 06:00:00 1.1 3 Sudoeste 5 Oeste 0 -- -- 97
2019-03-09 05:00:00 1.2 2 Oeste 4 Sudoeste 0 -- -- 96
2019-03-09 04:00:00 1.5 0 Calma 4 Noroeste 0 -- -- 95
2019-03-09 03:00:00 2.2 0 Calma 5 Noroeste 0 -- -- 94
2019-03-09 02:00:00 2.9 0 Calma 4 Noroeste 0 -- -- 93
2019-03-09 01:00:00 3.7 0 Calma 4 Oeste 0 -- -- 91
2019-03-09 00:00:00 4.9 0 Calma 4 Noroeste 0 -- -- 88
2019-03-08 23:00:00 6.3 0 Calma 4 Sudeste 0 -- -- 84
2019-03-08 22:00:00 7.8 0 Calma 5 Sur 0 -- -- 78
2019-03-08 21:00:00 9.6 0 Calma 7 Sudeste 0 -- -- 70
2019-03-08 20:00:00 11.8 5 Este 15 Nordeste 0 -- -- 58
2019-03-08 19:00:00 12.8 9 Este 17 Este 0 -- -- 53
2019-03-08 18:00:00 13.9 10 Nordeste 28 Este 0 -- -- 50
2019-03-08 17:00:00 15.4 11 Este 21 Este 0 -- -- 42
2019-03-08 16:00:00 16.5 11 Este 24 Este 0 -- -- 38
2019-03-08 15:00:00 17.4 9 Este 26 Este 0 -- -- 35
2019-03-08 14:00:00 17.4 10 Nordeste 20 Nordeste 0 -- -- 33
2019-03-08 13:00:00 17.2 9 Este 17 Este 0 -- -- 27
2019-03-08 12:00:00 17.2 5 Nordeste 10 Norte 0 -- -- 34
2019-03-08 11:00:00 13.6 2 Sudeste 5 Sudeste 0 -- -- 42
2019-03-08 10:00:00 8 2 Oeste 5 Sudoeste 0 -- -- 76
2019-03-08 09:00:00 2 3 Oeste 6 Oeste 0 -- -- 100
2019-03-08 08:00:00 -0.6 0 Calma 4 Oeste 0 -- -- 99
2019-03-08 07:00:00 -0.9 4 Oeste 8 Oeste 0 -- -- 99
2019-03-08 06:00:00 -0.6 6 Oeste 9 Oeste 0 -- -- 98
2019-03-08 05:00:00 -0.2 3 Sudoeste 6 Oeste 0 -- -- 98
2019-03-08 04:00:00 0.3 3 Sudeste 6 Sudeste 0 -- -- 98
2019-03-08 03:00:00 1 2 Noroeste 4 Sudoeste 0 -- -- 97
2019-03-08 02:00:00 1.6 0 Calma 5 Sudoeste 0 -- -- 97
2019-03-08 01:00:00 2.4 2 Norte 6 Sudoeste 0 -- -- 96
2019-03-08 00:00:00 2.9 0 Calma 6 Sudoeste 0 -- -- 96
2019-03-07 23:00:00 3.3 4 Oeste 7 Sudoeste 0 -- -- 94
2019-03-07 22:00:00 4.5 2 Noroeste 4 Oeste 0 -- -- 93
2019-03-07 21:00:00 5.9 0 Calma 5 Sur 0 -- -- 89
2019-03-07 20:00:00 7.5 3 Oeste 7 Sudoeste 0 -- -- 83
2019-03-07 19:00:00 10.3 3 Este 17 Este 0 -- -- 73
2019-03-07 18:00:00 13.1 9 Este 29 Este 0 -- -- 61
2019-03-07 17:00:00 13.9 14 Nordeste 26 Este 0 -- -- 60
2019-03-07 16:00:00 14.4 13 Nordeste 36 Este 0 -- -- 55
2019-03-07 15:00:00 14.6 10 Este 26 Este 0 -- -- 59
2019-03-07 14:00:00 13 10 Este 22 Este 0 -- -- 67
2019-03-07 13:00:00 13.2 9 Nordeste 21 Nordeste 0 -- -- 63
2019-03-07 12:00:00 12.5 10 Este 17 Este 0 -- -- 62
2019-03-07 11:00:00 10.5 3 Sudoeste 8 Oeste 0 -- -- 76
2019-03-07 10:00:00 6.2 0 Calma 4 Nordeste 0 -- -- 99
2019-03-07 09:00:00 3.4 4 Oeste 6 Oeste 0 -- -- 99
2019-03-07 08:00:00 2 4 Oeste 8 Oeste 0 -- -- 98
2019-03-07 07:00:00 2.3 2 Oeste 8 Oeste 0 -- -- 97
2019-03-07 06:00:00 3.1 0 Calma 9 Sudoeste 0 -- -- 96
2019-03-07 05:00:00 3.7 2 Sudoeste 8 Oeste 0 -- -- 95
2019-03-07 04:00:00 5.2 0 Calma 9 Sudoeste 0 -- -- 91
2019-03-07 03:00:00 7.4 9 Sudoeste 17 Sudoeste 0 -- -- 84
2019-03-07 02:00:00 7.7 4 Nordeste 13 Este 0 -- -- 88
2019-03-07 01:00:00 9.6 9 Este 18 Este 0 -- -- 83
2019-03-07 00:00:00 8.9 5 Sudeste 13 Este 0 -- -- 92
2019-03-06 23:00:00 10 5 Este 17 Oeste 0 -- -- 90
2019-03-06 22:00:00 12 13 Sudoeste 30 Sudoeste 2.8 -- -- 77
2019-03-06 21:00:00 12 2 Sudeste 19 Sudoeste 3.4 -- -- 89
2019-03-06 20:00:00 14.2 5 Oeste 28 Sudoeste 0 -- -- 70
2019-03-06 19:00:00 15 10 Sudoeste 22 Sur 0 -- -- 62
2019-03-06 18:00:00 15.5 5 Oeste 27 Oeste 0 -- -- 59
2019-03-06 17:00:00 15.7 12 Oeste 26 Oeste 0 -- -- 60
2019-03-06 16:00:00 15.3 8 Noroeste 25 Oeste 0 -- -- 63
2019-03-06 15:00:00 15.3 8 Oeste 38 Oeste 0 -- -- 63
2019-03-06 14:00:00 16.1 10 Sudoeste 26 Oeste 0 -- -- 60
2019-03-06 13:00:00 17.8 9 Sudoeste 23 Oeste 0 -- -- 54
2019-03-06 12:00:00 16.8 6 Norte 18 Sur 0 -- -- 55
2019-03-06 11:00:00 15.6 12 Sudeste 23 Sudeste 0 -- -- 56
2019-03-06 10:00:00 16.1 5 Sur 16 Sur 0 -- -- 52
2019-03-06 09:00:00 11.6 7 Sudoeste 18 Oeste 0 -- -- 62
2019-03-06 08:00:00 6.7 4 Norte 14 Noroeste 0 -- -- 86
2019-03-06 07:00:00 6 2 Este 10 Noroeste 0 -- -- 87
2019-03-06 06:00:00 6 3 Oeste 12 Oeste 0 -- -- 85
2019-03-06 05:00:00 6.1 4 Nordeste 12 Noroeste 0 -- -- 84
2019-03-06 04:00:00 5.5 3 Nordeste 13 Oeste 0 -- -- 87
2019-03-06 03:00:00 5.1 4 Oeste 12 Noroeste 0 -- -- 86
2019-03-06 02:00:00 4.8 0 Calma 8 Oeste 0 -- -- 87
2019-03-06 01:00:00 5.8 0 Calma 8 Oeste 0 -- -- 82
2019-03-06 00:00:00 6.8 3 Noroeste 10 Sudoeste 0 -- -- 79
2019-03-05 23:00:00 8.8 6 Sudoeste 16 Sudoeste 0 -- -- 70
2019-03-05 22:00:00 12.5 13 Sudoeste 28 Sur 0 -- -- 59
2019-03-05 21:00:00 12.6 12 Sur 27 Sudoeste 0 -- -- 57
2019-03-05 20:00:00 13.6 7 Sur 22 Sudoeste 0 -- -- 52
2019-03-05 19:00:00 14.6 11 Sudoeste 31 Oeste 0 -- -- 48
2019-03-05 18:00:00 16.7 10 Oeste 24 Oeste 0 -- -- 42
2019-03-05 17:00:00 18 10 Oeste 31 Sudoeste 0 -- -- 41
2019-03-05 16:00:00 17.9 9 Sur 29 Sudoeste 0 -- -- 41
2019-03-05 15:00:00 18.3 9 Sudoeste 22 Oeste 0 -- -- 39
2019-03-05 14:00:00 18.4 8 Noroeste 25 Oeste 0 -- -- 40
2019-03-05 13:00:00 17.1 4 Nordeste 21 Noroeste 0 -- -- 42
2019-03-05 12:00:00 16 10 Oeste 23 Oeste 0 -- -- 46
2019-03-05 11:00:00 14.4 13 Oeste 23 Oeste 0 -- -- 51
2019-03-05 10:00:00 12.5 4 Sudoeste 9 Sudoeste 0 -- -- 69
2019-03-05 09:00:00 8.8 3 Sur 5 Oeste 0 -- -- 86
2019-03-05 08:00:00 8 0 Calma 5 Noroeste 0 -- -- 88
2019-03-05 07:00:00 7.9 3 Sudoeste 5 Noroeste 0 -- -- 88
2019-03-05 06:00:00 8.2 2 Sudeste 6 Norte 0 -- -- 86
2019-03-05 05:00:00 8.5 2 Sur 4 Noroeste 0 -- -- 84
2019-03-05 04:00:00 8.8 0 Calma 3 Noroeste 0 -- -- 84
2019-03-05 03:00:00 9 0 Calma 3 Sudoeste 0 -- -- 83
2019-03-05 02:00:00 9 0 Calma 4 Norte 0 -- -- 82
2019-03-05 01:00:00 9.2 0 Calma 4 Sudoeste 0 -- -- 81
2019-03-05 00:00:00 9.4 0 Calma 4 Noroeste 0 -- -- 79
2019-03-04 23:00:00 9.5 2 Sudeste 4 Sudeste 0 -- -- 78
2019-03-04 22:00:00 9.6 0 Calma 4 Noroeste 0 -- -- 77
2019-03-04 21:00:00 9.9 0 Calma 9 Este 0 -- -- 73
2019-03-04 20:00:00 11.1 5 Este 12 Este 0 -- -- 69
2019-03-04 19:00:00 12.1 5 Sudeste 15 Nordeste 0 -- -- 65
2019-03-04 18:00:00 13.1 8 Este 22 Este 0 -- -- 63
2019-03-04 17:00:00 14 12 Este 25 Este 0 -- -- 61
2019-03-04 16:00:00 14.7 15 Este 27 Este 0 -- -- 61
2019-03-04 15:00:00 16.1 11 Nordeste 33 Nordeste 0 -- -- 59
2019-03-04 14:00:00 17.1 14 Nordeste 27 Nordeste 0 -- -- 54
2019-03-04 13:00:00 17.2 15 Nordeste 30 Este 0 -- -- 53
2019-03-04 12:00:00 16.7 19 Este 31 Este 0 -- -- 55
2019-03-04 11:00:00 15.7 13 Este 26 Este 0 -- -- 57
2019-03-04 10:00:00 10.6 4 Este 9 Noroeste 0 -- -- 67
2019-03-04 09:00:00 7.2 4 Oeste 9 Oeste 0 -- -- 78
2019-03-04 08:00:00 5.8 2 Oeste 8 Oeste 0 -- -- 75
2019-03-04 07:00:00 5.7 3 Oeste 12 Oeste 0 -- -- 75
2019-03-04 06:00:00 5.2 3 Noroeste 10 Oeste 0 -- -- 76
2019-03-04 05:00:00 6 3 Sudoeste 8 Oeste 0 -- -- 73
2019-03-04 04:00:00 7.3 0 Calma 12 Oeste 0 -- -- 68
2019-03-04 03:00:00 9.7 2 Sudoeste 10 Oeste 0 -- -- 59
2019-03-04 02:00:00 10.1 5 Este 11 Sudeste 0 -- -- 59
2019-03-04 01:00:00 12 3 Este 12 Oeste 0 -- -- 52
2019-03-04 00:00:00 13.5 5 Sudeste 13 Sudeste 0 -- -- 48
2019-03-03 23:00:00 13.7 4 Sudeste 11 Este 0 -- -- 49
2019-03-03 22:00:00 12.3 2 Sur 11 Oeste 0 -- -- 58
2019-03-03 21:00:00 12.1 3 Sudoeste 6 Sur 0 -- -- 62
2019-03-03 20:00:00 12.7 2 Sur 8 Noroeste 0 -- -- 63
2019-03-03 19:00:00 15.1 2 Norte 11 Este 0 -- -- 59
2019-03-03 18:00:00 18.7 6 Este 14 Este 0 -- -- 52
2019-03-03 17:00:00 21 7 Este 13 Nordeste 0 -- -- 45
2019-03-03 16:00:00 21.6 7 Este 17 Este 0 -- -- 42
2019-03-03 15:00:00 21.6 6 Este 15 Nordeste 0 -- -- 41
2019-03-03 14:00:00 20.1 10 Este 17 Este 0 -- -- 43
2019-03-03 13:00:00 18.7 8 Este 13 Nordeste 0 -- -- 44
2019-03-03 12:00:00 16.8 4 Este 8 Este 0 -- -- 47
2019-03-03 11:00:00 14.9 4 Sudoeste 6 Oeste 0 -- -- 56
2019-03-03 10:00:00 9.7 4 Sudoeste 6 Sudoeste 0 -- -- 80
2019-03-03 09:00:00 4.2 0 Calma 4 Oeste 0 -- -- 100
2019-03-03 08:00:00 0.7 3 Oeste 9 Oeste 0 -- -- 98
2019-03-03 07:00:00 0.8 2 Sur 8 Norte 0 -- -- 97
2019-03-03 06:00:00 1.1 2 Noroeste 5 Oeste 0 -- -- 97
2019-03-03 05:00:00 1.9 2 Oeste 6 Oeste 0 -- -- 97
2019-03-03 04:00:00 2.4 2 Sudoeste 5 Noroeste 0 -- -- 96
2019-03-03 03:00:00 3.5 0 Calma 8 Sudoeste 0 -- -- 95
2019-03-03 02:00:00 4.2 3 Oeste 9 Oeste 0 -- -- 94
2019-03-03 01:00:00 5.1 5 Sudoeste 9 Noroeste 0 -- -- 92
2019-03-03 00:00:00 6.3 3 Nordeste 10 Noroeste 0 -- -- 90
2019-03-02 23:00:00 6.9 3 Sudeste 9 Oeste 0 -- -- 88
2019-03-02 22:00:00 8 4 Noroeste 9 Noroeste 0 -- -- 85
2019-03-02 21:00:00 8.5 2 Sudoeste 8 Norte 0 -- -- 83
2019-03-02 20:00:00 10.4 2 Sudoeste 9 Sudeste 0 -- -- 76
2019-03-02 19:00:00 12.6 0 Calma 14 Este 0 -- -- 69
2019-03-02 18:00:00 14.5 9 Este 27 Este 0 -- -- 63
2019-03-02 17:00:00 16.3 17 Nordeste 28 Nordeste 0 -- -- 55
2019-03-02 16:00:00 17.9 14 Nordeste 28 Nordeste 0 -- -- 49
2019-03-02 15:00:00 17.9 17 Este 33 Este 0 -- -- 49
2019-03-02 14:00:00 18.3 12 Este 23 Este 0 -- -- 46
2019-03-02 13:00:00 18.6 5 Este 15 Nordeste 0 -- -- 46
2019-03-02 12:00:00 18.1 2 Norte 6 Sudeste 0 -- -- 45
2019-03-02 11:00:00 14.4 3 Sudeste 7 Sudoeste 0 -- -- 62
2019-03-02 10:00:00 9.8 5 Oeste 8 Oeste 0 -- -- 81
2019-03-02 09:00:00 4.7 3 Oeste 9 Oeste 0 -- -- 98
2019-03-02 08:00:00 3.9 2 Oeste 10 Oeste 0 -- -- 97
2019-03-02 07:00:00 4 2 Nordeste 7 Oeste 0 -- -- 96
2019-03-02 06:00:00 4.6 3 Oeste 6 Norte 0 -- -- 96
2019-03-02 05:00:00 4.3 2 Oeste 6 Oeste 0 -- -- 96
2019-03-02 04:00:00 4.4 2 Sudoeste 6 Oeste 0 -- -- 96
2019-03-02 03:00:00 3.5 0 Calma 6 Oeste 0 -- -- 95
2019-03-02 02:00:00 4.2 6 Oeste 8 Oeste 0 -- -- 94
2019-03-02 01:00:00 5.2 0 Calma 4 Sudoeste 0 -- -- 91
2019-03-02 00:00:00 6.7 0 Calma 4 Sudeste 0 -- -- 88
2019-03-01 23:00:00 8.7 0 Calma 3 Sudeste 0 -- -- 83
2019-03-01 22:00:00 10.7 0 Calma 13 Este 0 -- -- 78
2019-03-01 21:00:00 11.2 8 Este 15 Este 0 -- -- 77
2019-03-01 20:00:00 11.9 6 Este 10 Sudeste 0 -- -- 75
2019-03-01 19:00:00 13.4 4 Este 17 Este 0 -- -- 70
2019-03-01 18:00:00 15.9 13 Este 25 Este 0 -- -- 62
2019-03-01 17:00:00 17.4 17 Este 26 Nordeste 0 -- -- 53
2019-03-01 16:00:00 18.7 13 Este 19 Este 0 -- -- 51
2019-03-01 15:00:00 19.2 9 Este 15 Este 0 -- -- 47
2019-03-01 14:00:00 18.4 8 Este 15 Este 0 -- -- 49
2019-03-01 13:00:00 16.8 10 Este 17 Sudeste 0 -- -- 53
2019-03-01 12:00:00 16.3 9 Este 16 Nordeste 0 -- -- 52
2019-03-01 11:00:00 13.7 2 Oeste 6 Oeste 0 -- -- 60
2019-03-01 10:00:00 9.3 0 Calma 6 Oeste 0 -- -- 77
2019-03-01 09:00:00 2.4 4 Oeste 6 Oeste 0 -- -- 97
2019-03-01 08:00:00 -0.4 3 Oeste 4 Noroeste 0 -- -- 97
2019-03-01 07:00:00 -0.2 0 Calma 6 Oeste 0 -- -- 96
2019-03-01 06:00:00 0.2 0 Calma 10 Oeste 0 -- -- 95
2019-03-01 05:00:00 0.8 2 Oeste 7 Noroeste 0 -- -- 95
2019-03-01 04:00:00 1.3 2 Oeste 6 Noroeste 0 -- -- 94
2019-03-01 03:00:00 1.9 4 Oeste 7 Oeste 0 -- -- 92
2019-03-01 02:00:00 2.6 4 Oeste 7 Noroeste 0 -- -- 90
2019-03-01 01:00:00 3.7 4 Sudoeste 6 Sudoeste 0 -- -- 90
2019-03-01 00:00:00 4.6 4 Oeste 8 Noroeste 0 -- -- 87
2019-02-28 23:00:00 5.5 4 Oeste 7 Noroeste 0 -- -- 83
2019-02-28 22:00:00 7 0 Calma 5 Sudeste 0 -- -- 79
2019-02-28 21:00:00 8.5 4 Oeste 9 Noroeste 0 -- -- 74
2019-02-28 20:00:00 10.5 0 Calma 5 Sudoeste 0 -- -- 66
2019-02-28 19:00:00 13.3 2 Este 10 Sudeste 0 -- -- 56
2019-02-28 18:00:00 18.2 6 Este 19 Este 0 -- -- 41
2019-02-28 17:00:00 20.6 9 Este 19 Este 0 -- -- 36
2019-02-28 16:00:00 21 11 Nordeste 24 Este 0 -- -- 35
2019-02-28 15:00:00 21.4 13 Nordeste 22 Este 0 -- -- 34
2019-02-28 14:00:00 21.1 12 Nordeste 20 Nordeste 0 -- -- 30
2019-02-28 13:00:00 20.1 12 Este 22 Este 0 -- -- 32
2019-02-28 12:00:00 18.8 14 Este 24 Sudeste 0 -- -- 36
2019-02-28 11:00:00 16.2 8 Sudeste 20 Sudeste 0 -- -- 42
2019-02-28 10:00:00 9.6 0 Calma 6 Oeste 0 -- -- 72
2019-02-28 09:00:00 3.8 0 Calma 4 Oeste 0 -- -- 96
2019-02-28 08:00:00 -0.1 0 Calma 5 Noroeste 0 -- -- 96
2019-02-28 07:00:00 0 2 Oeste 6 Oeste 0 -- -- 96
2019-02-28 06:00:00 0.4 2 Sudoeste 6 Oeste 0 -- -- 95
2019-02-28 05:00:00 1 0 Calma 4 Sur 0 -- -- 95
2019-02-28 04:00:00 1.7 2 Oeste 7 Sudoeste 0 -- -- 95
2019-02-28 03:00:00 2.1 0 Calma 8 Sudoeste 0 -- -- 94
2019-02-28 02:00:00 2.8 3 Sudoeste 6 Noroeste 0 -- -- 93
2019-02-28 01:00:00 3.6 2 Sudoeste 4 Sudeste 0 -- -- 92
2019-02-28 00:00:00 4.4 0 Calma 4 Oeste 0 -- -- 91
2019-02-27 23:00:00 5.4 0 Calma 4 Sudeste 0 -- -- 88
2019-02-27 22:00:00 6.9 3 Oeste 6 Oeste 0 -- -- 82
2019-02-27 21:00:00 8.3 0 Calma 4 Sudoeste 0 -- -- 77
2019-02-27 20:00:00 10.7 0 Calma 5 Sudoeste 0 -- -- 68
2019-02-27 19:00:00 13.7 0 Calma 14 Este 0 -- -- 63
2019-02-27 18:00:00 18.7 8 Sudeste 20 Este 0 -- -- 51
2019-02-27 17:00:00 21.3 13 Este 27 Este 0 -- -- 41
2019-02-27 16:00:00 23 13 Este 27 Este 0 -- -- 34
2019-02-27 15:00:00 24.2 10 Este 20 Este 0 -- -- 29
2019-02-27 14:00:00 23.5 13 Este 22 Este 0 -- -- 30
2019-02-27 13:00:00 23.4 6 Este 12 Este 0 -- -- 21
2019-02-27 12:00:00 21.3 3 Sudeste 5 Sudeste 0 -- -- 23
2019-02-27 11:00:00 16.8 2 Este 4 Sudeste 0 -- -- 37
2019-02-27 10:00:00 9 3 Oeste 5 Oeste 0 -- -- 58
2019-02-27 09:00:00 2.3 2 Sur 6 Sur 0 -- -- 88
2019-02-27 08:00:00 -1.4 0 Calma 8 Oeste 0 -- -- 93
2019-02-27 07:00:00 -1.4 0 Calma 6 Sudeste 0 -- -- 94
2019-02-27 06:00:00 -1 3 Noroeste 7 Noroeste 0 -- -- 95
2019-02-27 05:00:00 -0.8 0 Calma 5 Oeste 0 -- -- 95
2019-02-27 04:00:00 -0.4 2 Oeste 7 Noroeste 0 -- -- 94
2019-02-27 03:00:00 0.4 0 Calma 3 Noroeste 0 -- -- 94
2019-02-27 02:00:00 1.1 0 Calma 3 Noroeste 0 -- -- 94
2019-02-27 01:00:00 2.1 2 Sur 5 Oeste 0 -- -- 93
2019-02-27 00:00:00 3.1 2 Oeste 5 Noroeste 0 -- -- 92
2019-02-26 23:00:00 4.2 0 Calma 4 Oeste 0 -- -- 90
2019-02-26 22:00:00 5.5 0 Calma 5 Oeste 0 -- -- 86
2019-02-26 21:00:00 7.5 2 Oeste 10 Oeste 0 -- -- 81
2019-02-26 20:00:00 9.1 0 Calma 4 Sudoeste 0 -- -- 75
2019-02-26 19:00:00 11.7 2 Sudoeste 13 Sudeste 0 -- -- 69
2019-02-26 18:00:00 17.1 6 Sudeste 15 Este 0 -- -- 51
2019-02-26 17:00:00 18.8 7 Este 19 Este 0 -- -- 46
2019-02-26 16:00:00 20.3 10 Este 16 Sudeste 0 -- -- 42
2019-02-26 15:00:00 21 10 Este 17 Este 0 -- -- 38
2019-02-26 14:00:00 20.6 9 Este 17 Este 0 -- -- 35
2019-02-26 13:00:00 20.1 8 Este 15 Sudeste 0 -- -- 38
2019-02-26 12:00:00 18.2 8 Sudeste 15 Sudeste 0 -- -- 42
2019-02-26 11:00:00 13.9 5 Sudoeste 13 Sudoeste 0 -- -- 52
2019-02-26 10:00:00 9.1 0 Calma 4 Noroeste 0 -- -- 73
2019-02-26 09:00:00 2.2 3 Oeste 5 Oeste 0 -- -- 99
2019-02-26 08:00:00 -1 2 Oeste 6 Oeste 0 -- -- 98
2019-02-26 07:00:00 -1 0 Calma 5 Oeste 0 -- -- 97
2019-02-26 06:00:00 -0.7 3 Nordeste 5 Noroeste 0 -- -- 97
2019-02-26 05:00:00 -0.4 3 Oeste 7 Oeste 0 -- -- 98
2019-02-26 04:00:00 0.1 3 Oeste 5 Noroeste 0 -- -- 97
2019-02-26 03:00:00 0.5 0 Calma 4 Oeste 0 -- -- 97
2019-02-26 02:00:00 1.3 0 Calma 3 Sudoeste 0 -- -- 96
2019-02-26 01:00:00 2.2 0 Calma 4 Noroeste 0 -- -- 95
2019-02-26 00:00:00 3.1 0 Calma 5 Sudoeste 0 -- -- 94
2019-02-25 23:00:00 4.1 2 Noroeste 5 Oeste 0 -- -- 93
2019-02-25 22:00:00 5 0 Calma 4 Sudoeste 0 -- -- 90
2019-02-25 21:00:00 6.4 0 Calma 6 Noroeste 0 -- -- 87
2019-02-25 20:00:00 8 3 Oeste 6 Oeste 0 -- -- 83
2019-02-25 19:00:00 10.4 0 Calma 6 Oeste 0 -- -- 76
2019-02-25 18:00:00 13.6 3 Sur 13 Sudeste 0 -- -- 67
2019-02-25 17:00:00 16 8 Este 24 Nordeste 0 -- -- 59
2019-02-25 16:00:00 17.5 14 Este 29 Este 0 -- -- 49
2019-02-25 15:00:00 17.7 14 Este 24 Nordeste 0 -- -- 48
2019-02-25 14:00:00 17.2 14 Este 27 Este 0 -- -- 54
2019-02-25 13:00:00 17.6 12 Este 22 Este 0 -- -- 53
2019-02-25 12:00:00 18.1 5 Este 13 Este 0 -- -- 46
2019-02-25 11:00:00 13.8 4 Sudeste 6 Sudeste 0 -- -- 58
2019-02-25 10:00:00 8.3 2 Sur 6 Sudoeste 0 -- -- 86
2019-02-25 09:00:00 1.8 3 Oeste 7 Oeste 0 -- -- 100
2019-02-25 08:00:00 -1 0 Calma 7 Oeste 0 -- -- 98
2019-02-25 07:00:00 -1 3 Oeste 6 Oeste 0 -- -- 97
2019-02-25 06:00:00 -0.8 0 Calma 5 Oeste 0 -- -- 97
2019-02-25 05:00:00 -0.5 0 Calma 2 Noroeste 0 -- -- 97
2019-02-25 04:00:00 -0.1 0 Calma 3 Oeste 0 -- -- 96
2019-02-25 03:00:00 0.5 0 Calma 5 Oeste 0 -- -- 96
2019-02-25 02:00:00 0.9 0 Calma 5 Oeste 0 -- -- 96
2019-02-25 01:00:00 1.7 2 Oeste 4 Oeste 0 -- -- 95
2019-02-25 00:00:00 2.2 0 Calma 3 Noroeste 0 -- -- 94
2019-02-24 23:00:00 3 0 Calma 3 Oeste 0 -- -- 91
2019-02-24 22:00:00 4.3 0 Calma 3 Oeste 0 -- -- 89
2019-02-24 21:00:00 5.5 0 Calma 3 Oeste 0 -- -- 86
2019-02-24 20:00:00 7.5 0 Calma 4 Sudoeste 0 -- -- 81
2019-02-24 19:00:00 9.6 2 Sudeste 16 Este 0 -- -- 75
2019-02-24 18:00:00 13.1 9 Este 29 Este 0 -- -- 63
2019-02-24 17:00:00 15.9 18 Este 28 Nordeste 0 -- -- 50
2019-02-24 16:00:00 17.5 12 Este 21 Nordeste 0 -- -- 43
2019-02-24 15:00:00 17.6 9 Este 23 Nordeste 0 -- -- 42
2019-02-24 14:00:00 16.7 14 Este 24 Este 0 -- -- 45
2019-02-24 13:00:00 16.3 12 Este 19 Este 0 -- -- 46
2019-02-24 12:00:00 15.5 8 Este 15 Este 0 -- -- 52
2019-02-24 11:00:00 13 3 Sur 5 Sudeste 0 -- -- 64
2019-02-24 10:00:00 8.8 0 Calma 3 Nordeste 0 -- -- 78
2019-02-24 09:00:00 3.9 0 Calma 5 Oeste 0 -- -- 99
2019-02-24 08:00:00 0.4 0 Calma 2 Noroeste 0 -- -- 98
2019-02-24 07:00:00 -0.4 0 Calma 4 Oeste 0 -- -- 97
2019-02-24 06:00:00 0 2 Oeste 5 Oeste 0 -- -- 96
2019-02-24 05:00:00 0.3 0 Calma 4 Sudoeste 0 -- -- 96
2019-02-24 04:00:00 0.9 2 Sudeste 4 Sudeste 0 -- -- 95
2019-02-24 03:00:00 1.7 3 Oeste 5 Oeste 0 -- -- 94
2019-02-24 02:00:00 1.9 3 Sudoeste 7 Sudoeste 0 -- -- 93
2019-02-24 01:00:00 2.9 3 Oeste 8 Oeste 0 -- -- 92
2019-02-24 00:00:00 4 3 Oeste 5 Oeste 0 -- -- 90
2019-02-23 23:00:00 4.7 0 Calma 6 Noroeste 0 -- -- 87
2019-02-23 22:00:00 6.3 2 Oeste 10 Nordeste 0 -- -- 83
2019-02-23 21:00:00 9.5 9 Este 15 Sudeste 0 -- -- 77
2019-02-23 20:00:00 9.8 0 Calma 9 Sudoeste 0 -- -- 71
2019-02-23 19:00:00 12.6 0 Calma 18 Este 0 -- -- 62
2019-02-23 18:00:00 16.5 10 Este 19 Este 0 -- -- 52
2019-02-23 17:00:00 19 13 Este 26 Este 0 -- -- 40
2019-02-23 16:00:00 19.9 15 Nordeste 28 Nordeste 0 -- -- 38
2019-02-23 15:00:00 20.6 13 Este 23 Este 0 -- -- 35
2019-02-23 14:00:00 20.1 13 Este 21 Este 0 -- -- 35
2019-02-23 13:00:00 19.8 11 Este 19 Nordeste 0 -- -- 35
2019-02-23 12:00:00 19 5 Este 9 Este 0 -- -- 34
2019-02-23 11:00:00 14.8 2 Sudoeste 4 Sudoeste 0 -- -- 46
2019-02-23 10:00:00 8.9 2 Sudoeste 5 Sudoeste 0 -- -- 64
2019-02-23 09:00:00 2.3 0 Calma 4 Sudoeste 0 -- -- 91
2019-02-23 08:00:00 -0.9 0 Calma 6 Oeste 0 -- -- 92
2019-02-23 07:00:00 -0.5 0 Calma 6 Oeste 0 -- -- 91
2019-02-23 06:00:00 -0.2 0 Calma 4 Oeste 0 -- -- 91
2019-02-23 05:00:00 0.3 0 Calma 4 Sudoeste 0 -- -- 89
2019-02-23 04:00:00 0.9 0 Calma 5 Oeste 0 -- -- 88
2019-02-23 03:00:00 1.7 0 Calma 7 Oeste 0 -- -- 85
2019-02-23 02:00:00 2.8 0 Calma 8 Oeste 0 -- -- 81
2019-02-23 01:00:00 3.5 4 Sudoeste 10 Oeste 0 -- -- 80
2019-02-23 00:00:00 4.3 4 Oeste 11 Sur 0 -- -- 77
2019-02-22 23:00:00 5.1 5 Oeste 10 Norte 0 -- -- 74
2019-02-22 22:00:00 5.9 5 Oeste 12 Sur 0 -- -- 71
2019-02-22 21:00:00 7.4 3 Oeste 8 Oeste 0 -- -- 66
2019-02-22 20:00:00 9.8 2 Norte 6 Oeste 0 -- -- 56
2019-02-22 19:00:00 13.9 6 Sudoeste 10 Sudoeste 0 -- -- 41
2019-02-22 18:00:00 18.7 3 Nordeste 17 Sur 0 -- -- 33
2019-02-22 17:00:00 23 6 Sur 11 Sudoeste 0 -- -- 21
2019-02-22 16:00:00 24 2 Sudeste 13 Sudoeste 0 -- -- 23
2019-02-22 15:00:00 25 4 Sudeste 11 Nordeste 0 -- -- 15
2019-02-22 14:00:00 23.5 4 Este 10 Este 0 -- -- 20
2019-02-22 13:00:00 21.9 3 Sur 10 Sudoeste 0 -- -- 25
2019-02-22 12:00:00 18.4 3 Sudeste 6 Sudoeste 0 -- -- 36
2019-02-22 11:00:00 13.4 3 Sudoeste 8 Noroeste 0 -- -- 51
2019-02-22 10:00:00 6.8 5 Sudoeste 12 Sur 0 -- -- 77
2019-02-22 09:00:00 0.9 2 Noroeste 6 Sudoeste 0 -- -- 97
2019-02-22 08:00:00 -1.7 3 Oeste 7 Norte 0 -- -- 97
2019-02-22 07:00:00 -1.5 2 Oeste 7 Oeste 0 -- -- 96
2019-02-22 06:00:00 -1.2 0 Calma 7 Noroeste 0 -- -- 96
2019-02-22 05:00:00 -0.9 0 Calma 6 Noroeste 0 -- -- 96
2019-02-22 04:00:00 -0.7 3 Oeste 8 Noroeste 0 -- -- 95
2019-02-22 03:00:00 -0.1 0 Calma 6 Noroeste 0 -- -- 95
2019-02-22 02:00:00 0.4 2 Oeste 5 Oeste 0 -- -- 94
2019-02-22 01:00:00 1.2 2 Sudoeste 5 Oeste 0 -- -- 93
2019-02-22 00:00:00 1.7 0 Calma 3 Sudoeste 0 -- -- 91
2019-02-21 23:00:00 2.9 0 Calma 4 Noroeste 0 -- -- 89
2019-02-21 22:00:00 4.2 0 Calma 4 Noroeste 0 -- -- 85
2019-02-21 21:00:00 5.5 0 Calma 2 Noroeste 0 -- -- 82
2019-02-21 20:00:00 7.3 0 Calma 5 Oeste 0 -- -- 77
2019-02-21 19:00:00 10 0 Calma 9 Este 0 -- -- 67
2019-02-21 18:00:00 13.9 5 Sudeste 14 Este 0 -- -- 53
2019-02-21 17:00:00 16.6 9 Este 22 Este 0 -- -- 46
2019-02-21 16:00:00 17.2 12 Este 23 Nordeste 0 -- -- 45
2019-02-21 15:00:00 17.8 11 Este 18 Nordeste 0 -- -- 47
2019-02-21 14:00:00 17.3 10 Este 18 Nordeste 0 -- -- 46
2019-02-21 13:00:00 16.8 5 Sudeste 9 Sudeste 0 -- -- 45
2019-02-21 12:00:00 14.6 3 Este 7 Este 0 -- -- 50
2019-02-21 11:00:00 10.5 2 Sur 5 Sudoeste 0 -- -- 58
2019-02-21 10:00:00 4.6 2 Sur 5 Oeste 0 -- -- 100
2019-02-21 09:00:00 -0.3 0 Calma 3 Noroeste 0 -- -- 100
2019-02-21 08:00:00 -1.9 0 Calma 3 Sudoeste 0 -- -- 99
2019-02-21 07:00:00 -1.5 0 Calma 3 Sudoeste 0 -- -- 99
2019-02-21 06:00:00 -1.4 0 Calma 3 Oeste 0 -- -- 99
2019-02-21 05:00:00 -1.1 0 Calma 3 Sudoeste 0 -- -- 98
2019-02-21 04:00:00 -1 0 Calma 4 Oeste 0 -- -- 97
2019-02-21 03:00:00 -0.6 0 Calma 3 Oeste 0 -- -- 96
2019-02-21 02:00:00 -0.2 2 Oeste 3 Oeste 0 -- -- 96
2019-02-21 01:00:00 0.6 0 Calma 3 Oeste 0 -- -- 95
2019-02-21 00:00:00 1.4 0 Calma 6 Oeste 0 -- -- 94
2019-02-20 23:00:00 2.6 3 Oeste 6 Oeste 0 -- -- 93
2019-02-20 22:00:00 3.7 0 Calma 4 Oeste 0 -- -- 89
2019-02-20 21:00:00 5 0 Calma 4 Noroeste 0 -- -- 86
2019-02-20 20:00:00 7 2 Noroeste 9 Sudoeste 0 -- -- 80
2019-02-20 19:00:00 8.9 3 Sudoeste 10 Sudeste 0 -- -- 73
2019-02-20 18:00:00 12.5 6 Este 17 Este 0 -- -- 61
2019-02-20 17:00:00 14.6 9 Este 19 Nordeste 0 -- -- 52
2019-02-20 16:00:00 15.4 9 Este 18 Nordeste 0 -- -- 50
2019-02-20 15:00:00 15.6 6 Este 12 Nordeste 0 -- -- 45
2019-02-20 14:00:00 14.5 5 Este 13 Nordeste 0 -- -- 48
2019-02-20 13:00:00 13.9 3 Nordeste 14 Nordeste 0 -- -- 53
2019-02-20 12:00:00 13 4 Nordeste 12 Nordeste 0 -- -- 55
2019-02-20 11:00:00 10.5 4 Este 6 Este 0 -- -- 65
2019-02-20 10:00:00 7.3 3 Oeste 6 Oeste 0 -- -- 80
2019-02-20 09:00:00 5.7 4 Oeste 8 Oeste 0 -- -- 85
2019-02-20 08:00:00 6.1 3 Oeste 8 Oeste 0 -- -- 81
2019-02-20 07:00:00 6.6 0 Calma 4 Oeste 0 -- -- 90
2019-02-20 06:00:00 6.5 2 Oeste 4 Oeste 0 -- -- 90
2019-02-20 05:00:00 6.6 0 Calma 3 Sudoeste 0 -- -- 90
2019-02-20 04:00:00 6.6 0 Calma 0 Calma 0 -- -- 90
2019-02-20 03:00:00 6.6 0 Calma 3 Sudoeste 0 -- -- 90
2019-02-20 02:00:00 6.6 2 Oeste 3 Oeste 0 -- -- 90
2019-02-20 01:00:00 6.5 0 Calma 3 Norte 0 -- -- 90
2019-02-20 00:00:00 6.6 0 Calma 4 Oeste 0 -- -- 89